createdAt,value
2023-04-15T00:00:28.681Z,360.00
2023-04-15T00:01:28.696Z,357.00
2023-04-15T00:02:28.775Z,358.00
2023-04-15T00:03:28.892Z,356.00
2023-04-15T00:04:28.884Z,355.00
2023-04-15T00:05:28.665Z,355.00
2023-04-15T00:06:28.657Z,353.00
2023-04-15T00:07:28.640Z,356.00
2023-04-15T00:08:28.639Z,354.00
2023-04-15T00:09:28.633Z,355.00
2023-04-15T00:10:28.642Z,355.00
2023-04-15T00:11:28.636Z,353.00
2023-04-15T00:12:28.605Z,354.00
2023-04-15T00:13:28.613Z,355.00
2023-04-15T00:14:28.592Z,354.00
2023-04-15T00:15:28.599Z,354.00
2023-04-15T00:16:28.620Z,357.00
2023-04-15T00:17:28.594Z,358.00
2023-04-15T00:18:28.593Z,356.00
2023-04-15T00:19:28.621Z,356.00
2023-04-15T00:20:28.639Z,356.00
2023-04-15T00:21:28.639Z,355.00
2023-04-15T00:22:28.665Z,355.00
2023-04-15T00:23:28.714Z,354.00
2023-04-15T00:24:28.739Z,356.00
2023-04-15T00:25:28.747Z,359.00
2023-04-15T00:26:28.755Z,360.00
2023-04-15T00:27:28.791Z,359.00
2023-04-15T00:28:28.839Z,359.00
2023-04-15T00:29:28.859Z,359.00
2023-04-15T00:30:28.867Z,358.00
2023-04-15T00:31:28.927Z,357.00
2023-04-15T00:32:28.929Z,356.00
2023-04-15T00:33:28.953Z,356.00
2023-04-15T00:34:28.983Z,355.00
2023-04-15T00:35:29.006Z,356.00
2023-04-15T00:36:29.022Z,353.00
2023-04-15T00:37:29.042Z,354.00
2023-04-15T00:38:29.059Z,356.00
2023-04-15T00:39:29.103Z,355.00
2023-04-15T00:40:29.115Z,355.00
2023-04-15T00:41:29.129Z,352.00
2023-04-15T00:42:29.156Z,354.00
2023-04-15T00:43:29.200Z,353.00
2023-04-15T00:44:29.237Z,355.00
2023-04-15T00:45:29.304Z,355.00
2023-04-15T00:46:29.254Z,356.00
2023-04-15T00:47:29.290Z,354.00
2023-04-15T00:48:29.305Z,352.00
2023-04-15T00:49:29.314Z,352.00
2023-04-15T00:50:29.336Z,351.00
2023-04-15T00:51:29.373Z,349.00
2023-04-15T00:52:29.397Z,350.00
2023-04-15T00:53:29.444Z,352.00
2023-04-15T00:54:29.440Z,353.00
2023-04-15T00:55:29.453Z,353.00
2023-04-15T00:56:29.474Z,353.00
2023-04-15T00:57:29.498Z,354.00
2023-04-15T00:58:29.533Z,354.00
2023-04-15T00:59:29.539Z,356.00
2023-04-15T01:00:29.566Z,358.00
2023-04-15T01:01:29.597Z,359.00
2023-04-15T01:02:29.792Z,358.00
2023-04-15T01:03:29.838Z,357.00
2023-04-15T01:04:29.787Z,358.00
2023-04-15T01:05:29.673Z,359.00
2023-04-15T01:06:29.699Z,359.00
2023-04-15T01:07:29.705Z,358.00
2023-04-15T01:08:29.729Z,358.00
2023-04-15T01:09:29.800Z,359.00
2023-04-15T01:10:29.778Z,360.00
2023-04-15T01:11:29.804Z,359.00
2023-04-15T01:12:29.857Z,359.00
2023-04-15T01:13:29.841Z,360.00
2023-04-15T01:14:29.869Z,360.00
2023-04-15T01:15:29.911Z,362.00
2023-04-15T01:16:30.008Z,359.00
2023-04-15T01:17:30.014Z,362.00
2023-04-15T01:18:29.955Z,360.00
2023-04-15T01:19:29.983Z,359.00
2023-04-15T01:20:29.984Z,359.00
2023-04-15T01:21:30.041Z,360.00
2023-04-15T01:22:30.033Z,357.00
2023-04-15T01:23:30.057Z,358.00
2023-04-15T01:24:30.080Z,359.00
2023-04-15T01:25:30.085Z,360.00
2023-04-15T01:26:30.121Z,359.00
2023-04-15T01:27:30.136Z,359.00
2023-04-15T01:28:30.163Z,360.00
2023-04-15T01:29:30.175Z,361.00
2023-04-15T01:30:30.195Z,363.00
2023-04-15T01:31:30.237Z,361.00
2023-04-15T01:32:30.254Z,361.00
2023-04-15T01:33:30.269Z,361.00
2023-04-15T01:34:30.303Z,360.00
2023-04-15T01:35:30.334Z,360.00
2023-04-15T01:36:30.315Z,356.00
2023-04-15T01:37:30.371Z,354.00
2023-04-15T01:38:30.366Z,351.00
2023-04-15T01:39:30.389Z,351.00
2023-04-15T01:40:30.428Z,352.00
2023-04-15T01:41:30.436Z,356.00
2023-04-15T01:42:30.457Z,356.00
2023-04-15T01:43:30.488Z,355.00
2023-04-15T01:44:30.514Z,355.00
2023-04-15T01:45:30.541Z,354.00
2023-04-15T01:46:30.582Z,357.00
2023-04-15T01:47:30.576Z,358.00
2023-04-15T01:48:30.601Z,358.00
2023-04-15T01:49:30.617Z,356.00
2023-04-15T01:50:31.145Z,356.00
2023-04-15T01:51:30.662Z,355.00
2023-04-15T01:52:30.688Z,353.00
2023-04-15T01:53:30.714Z,355.00
2023-04-15T01:54:30.730Z,355.00
2023-04-15T01:55:30.759Z,354.00
2023-04-15T01:56:30.782Z,353.00
2023-04-15T01:57:30.797Z,355.00
2023-04-15T01:58:30.829Z,354.00
2023-04-15T01:59:30.857Z,354.00
2023-04-15T02:00:30.878Z,358.00
2023-04-15T02:01:30.987Z,357.00
2023-04-15T02:02:31.067Z,357.00
2023-04-15T02:03:31.035Z,355.00
2023-04-15T02:04:30.947Z,355.00
2023-04-15T02:05:30.996Z,356.00
2023-04-15T02:06:30.989Z,354.00
2023-04-15T02:07:31.013Z,353.00
2023-04-15T02:08:31.037Z,350.00
2023-04-15T02:09:31.075Z,349.00
2023-04-15T02:10:31.101Z,347.00
2023-04-15T02:11:31.102Z,347.00
2023-04-15T02:12:31.120Z,348.00
2023-04-15T02:13:31.161Z,350.00
2023-04-15T02:14:31.184Z,352.00
2023-04-15T02:15:31.188Z,352.00
2023-04-15T02:16:31.227Z,353.00
2023-04-15T02:17:31.242Z,351.00
2023-04-15T02:18:31.275Z,350.00
2023-04-15T02:19:31.292Z,347.00
2023-04-15T02:20:31.323Z,346.00
2023-04-15T02:21:31.400Z,345.00
2023-04-15T02:22:31.348Z,345.00
2023-04-15T02:23:31.416Z,347.00
2023-04-15T02:24:31.398Z,347.00
2023-04-15T02:25:31.424Z,351.00
2023-04-15T02:26:31.437Z,352.00
2023-04-15T02:27:31.459Z,351.00
2023-04-15T02:28:31.484Z,351.00
2023-04-15T02:29:31.528Z,350.00
2023-04-15T02:30:31.545Z,348.00
2023-04-15T02:31:31.575Z,348.00
2023-04-15T02:32:31.602Z,348.00
2023-04-15T02:33:31.606Z,350.00
2023-04-15T02:34:31.629Z,349.00
2023-04-15T02:35:31.647Z,344.00
2023-04-15T02:36:31.647Z,344.00
2023-04-15T02:37:31.681Z,344.00
2023-04-15T02:38:31.707Z,346.00
2023-04-15T02:39:31.726Z,347.00
2023-04-15T02:40:31.763Z,349.00
2023-04-15T02:41:31.757Z,349.00
2023-04-15T02:42:31.800Z,353.00
2023-04-15T02:43:31.808Z,356.00
2023-04-15T02:44:31.849Z,354.00
2023-04-15T02:45:31.880Z,354.00
2023-04-15T02:46:32.072Z,353.00
2023-04-15T02:47:31.926Z,353.00
2023-04-15T02:48:31.932Z,352.00
2023-04-15T02:49:31.972Z,350.00
2023-04-15T02:50:31.992Z,350.00
2023-04-15T02:51:32.032Z,349.00
2023-04-15T02:52:32.030Z,350.00
2023-04-15T02:53:32.060Z,351.00
2023-04-15T02:54:32.085Z,352.00
2023-04-15T02:55:32.133Z,351.00
2023-04-15T02:56:32.142Z,349.00
2023-04-15T02:57:32.174Z,348.00
2023-04-15T02:58:32.196Z,348.00
2023-04-15T02:59:32.218Z,349.00
2023-04-15T03:00:32.259Z,347.00
2023-04-15T03:01:32.307Z,345.00
2023-04-15T03:02:32.371Z,343.00
2023-04-15T03:03:32.447Z,346.00
2023-04-15T03:04:32.346Z,345.00
2023-04-15T03:05:32.407Z,348.00
2023-04-15T03:06:32.406Z,347.00
2023-04-15T03:07:32.434Z,346.00
2023-04-15T03:08:32.464Z,346.00
2023-04-15T03:09:32.493Z,350.00
2023-04-15T03:10:32.514Z,347.00
2023-04-15T03:11:32.899Z,345.00
2023-04-15T03:12:32.562Z,347.00
2023-04-15T03:13:32.593Z,345.00
2023-04-15T03:14:32.631Z,348.00
2023-04-15T03:15:32.656Z,348.00
2023-04-15T03:16:32.675Z,349.00
2023-04-15T03:17:32.694Z,345.00
2023-04-15T03:18:32.721Z,345.00
2023-04-15T03:19:32.747Z,345.00
2023-04-15T03:20:32.829Z,342.00
2023-04-15T03:21:32.796Z,342.00
2023-04-15T03:22:32.824Z,343.00
2023-04-15T03:23:32.913Z,342.00
2023-04-15T03:24:32.878Z,341.00
2023-04-15T03:25:32.913Z,342.00
2023-04-15T03:26:32.976Z,344.00
2023-04-15T03:27:32.954Z,343.00
2023-04-15T03:28:33.002Z,344.00
2023-04-15T03:29:33.016Z,343.00
2023-04-15T03:30:33.044Z,344.00
2023-04-15T03:31:33.089Z,345.00
2023-04-15T03:32:33.145Z,345.00
2023-04-15T03:33:33.126Z,343.00
2023-04-15T03:34:33.160Z,343.00
2023-04-15T03:35:33.190Z,342.00
2023-04-15T03:36:33.220Z,342.00
2023-04-15T03:37:33.237Z,343.00
2023-04-15T03:38:33.253Z,344.00
2023-04-15T03:39:33.287Z,344.00
2023-04-15T03:40:33.310Z,346.00
2023-04-15T03:41:33.335Z,347.00
2023-04-15T03:42:33.350Z,346.00
2023-04-15T03:43:33.386Z,346.00
2023-04-15T03:44:33.397Z,345.00
2023-04-15T03:45:33.429Z,344.00
2023-04-15T03:46:33.486Z,343.00
2023-04-15T03:47:33.540Z,346.00
2023-04-15T03:48:33.519Z,345.00
2023-04-15T03:49:33.530Z,343.00
2023-04-15T03:50:33.563Z,345.00
2023-04-15T03:51:33.610Z,345.00
2023-04-15T03:52:33.605Z,349.00
2023-04-15T03:53:33.630Z,348.00
2023-04-15T03:54:33.734Z,351.00
2023-04-15T03:55:33.708Z,351.00
2023-04-15T03:56:33.719Z,351.00
2023-04-15T03:57:33.750Z,352.00
2023-04-15T03:58:33.775Z,351.00
2023-04-15T03:59:33.894Z,351.00
2023-04-15T04:00:33.812Z,352.00
2023-04-15T04:01:33.862Z,352.00
2023-04-15T04:02:33.974Z,348.00
2023-04-15T04:03:34.064Z,347.00
2023-04-15T04:04:33.996Z,346.00
2023-04-15T04:05:33.968Z,345.00
2023-04-15T04:06:33.997Z,347.00
2023-04-15T04:07:34.008Z,350.00
2023-04-15T04:08:34.066Z,351.00
2023-04-15T04:09:34.085Z,350.00
2023-04-15T04:10:34.103Z,351.00
2023-04-15T04:11:34.125Z,350.00
2023-04-15T04:12:34.168Z,348.00
2023-04-15T04:13:34.206Z,352.00
2023-04-15T04:14:34.253Z,352.00
2023-04-15T04:15:34.286Z,355.00
2023-04-15T04:16:34.329Z,353.00
2023-04-15T04:17:34.316Z,353.00
2023-04-15T04:18:34.323Z,351.00
2023-04-15T04:19:34.390Z,349.00
2023-04-15T04:20:34.382Z,348.00
2023-04-15T04:21:34.387Z,347.00
2023-04-15T04:22:34.434Z,350.00
2023-04-15T04:23:34.462Z,347.00
2023-04-15T04:24:34.512Z,345.00
2023-04-15T04:25:34.586Z,347.00
2023-04-15T04:26:34.555Z,346.00
2023-04-15T04:27:34.567Z,347.00
2023-04-15T04:28:34.611Z,346.00
2023-04-15T04:29:34.765Z,347.00
2023-04-15T04:30:34.666Z,345.00
2023-04-15T04:31:34.712Z,346.00
2023-04-15T04:32:34.708Z,345.00
2023-04-15T04:33:34.775Z,346.00
2023-04-15T04:34:34.794Z,345.00
2023-04-15T04:35:34.848Z,346.00
2023-04-15T04:36:34.833Z,345.00
2023-04-15T04:37:34.888Z,344.00
2023-04-15T04:38:34.899Z,347.00
2023-04-15T04:39:34.959Z,345.00
2023-04-15T04:40:34.969Z,347.00
2023-04-15T04:41:34.997Z,347.00
2023-04-15T04:42:36.051Z,346.00
2023-04-15T04:43:35.024Z,348.00
2023-04-15T04:44:35.066Z,347.00
2023-04-15T04:45:35.120Z,347.00
2023-04-15T04:46:35.120Z,346.00
2023-04-15T04:47:35.156Z,346.00
2023-04-15T04:48:35.188Z,346.00
2023-04-15T04:49:35.241Z,346.00
2023-04-15T04:50:35.258Z,350.00
2023-04-15T04:51:35.299Z,349.00
2023-04-15T04:52:35.321Z,345.00
2023-04-15T04:53:35.336Z,343.00
2023-04-15T04:54:35.384Z,342.00
2023-04-15T04:55:35.406Z,341.00
2023-04-15T04:56:35.447Z,342.00
2023-04-15T04:57:35.472Z,341.00
2023-04-15T04:58:35.534Z,343.00
2023-04-15T04:59:35.525Z,346.00
2023-04-15T05:00:35.588Z,347.00
2023-04-15T05:01:35.643Z,348.00
2023-04-15T05:02:35.800Z,346.00
2023-04-15T05:03:35.725Z,346.00
2023-04-15T05:04:35.694Z,348.00
2023-04-15T05:05:35.722Z,348.00
2023-04-15T05:06:35.739Z,351.00
2023-04-15T05:07:35.781Z,348.00
2023-04-15T05:08:35.805Z,347.00
2023-04-15T05:09:35.826Z,346.00
2023-04-15T05:10:35.875Z,347.00
2023-04-15T05:11:35.916Z,346.00
2023-04-15T05:12:35.929Z,346.00
2023-04-15T05:13:35.966Z,349.00
2023-04-15T05:14:35.993Z,349.00
2023-04-15T05:15:36.020Z,351.00
2023-04-15T05:16:36.062Z,349.00
2023-04-15T05:17:36.130Z,348.00
2023-04-15T05:18:36.096Z,346.00
2023-04-15T05:19:36.123Z,347.00
2023-04-15T05:20:36.156Z,347.00
2023-04-15T05:21:38.256Z,346.00
2023-04-15T05:22:36.179Z,345.00
2023-04-15T05:23:36.181Z,347.00
2023-04-15T05:24:36.169Z,347.00
2023-04-15T05:25:36.176Z,346.00
2023-04-15T05:26:36.158Z,346.00
2023-04-15T05:27:36.168Z,347.00
2023-04-15T05:28:36.146Z,348.00
2023-04-15T05:29:36.137Z,348.00
2023-04-15T05:30:36.122Z,348.00
2023-04-15T05:31:36.239Z,347.00
2023-04-15T05:32:36.116Z,348.00
2023-04-15T05:33:36.094Z,349.00
2023-04-15T05:34:36.090Z,349.00
2023-04-15T05:35:36.093Z,348.00
2023-04-15T05:36:36.098Z,347.00
2023-04-15T05:37:36.070Z,348.00
2023-04-15T05:38:36.077Z,348.00
2023-04-15T05:39:36.080Z,347.00
2023-04-15T05:40:36.066Z,347.00
2023-04-15T05:41:36.047Z,348.00
2023-04-15T05:42:36.053Z,349.00
2023-04-15T05:43:36.037Z,349.00
2023-04-15T05:44:36.031Z,347.00
2023-04-15T05:45:36.018Z,350.00
2023-04-15T05:46:36.138Z,353.00
2023-04-15T05:47:36.038Z,354.00
2023-04-15T05:48:36.010Z,354.00
2023-04-15T05:49:36.005Z,355.00
2023-04-15T05:50:35.982Z,355.00
2023-04-15T05:51:35.997Z,353.00
2023-04-15T05:52:35.994Z,353.00
2023-04-15T05:53:35.964Z,352.00
2023-04-15T05:54:35.972Z,353.00
2023-04-15T05:55:35.947Z,352.00
2023-04-15T05:56:35.948Z,353.00
2023-04-15T05:57:35.946Z,353.00
2023-04-15T05:58:35.936Z,349.00
2023-04-15T05:59:35.932Z,350.00
2023-04-15T06:00:35.938Z,349.00
2023-04-15T06:01:35.937Z,349.00
2023-04-15T06:02:36.022Z,348.00
2023-04-15T06:03:36.064Z,349.00
2023-04-15T06:04:36.039Z,348.00
2023-04-15T06:05:35.911Z,351.00
2023-04-15T06:06:35.892Z,351.00
2023-04-15T06:07:35.880Z,351.00
2023-04-15T06:08:35.881Z,350.00
2023-04-15T06:09:35.889Z,349.00
2023-04-15T06:10:35.851Z,349.00
2023-04-15T06:11:35.864Z,349.00
2023-04-15T06:12:35.863Z,353.00
2023-04-15T06:13:35.836Z,354.00
2023-04-15T06:14:35.858Z,354.00
2023-04-15T06:15:35.814Z,351.00
2023-04-15T06:16:35.868Z,349.00
2023-04-15T06:17:35.872Z,348.00
2023-04-15T06:18:35.802Z,346.00
2023-04-15T06:19:35.799Z,347.00
2023-04-15T06:20:35.795Z,346.00
2023-04-15T06:21:35.784Z,347.00
2023-04-15T06:22:35.772Z,347.00
2023-04-15T06:23:35.775Z,346.00
2023-04-15T06:24:35.769Z,347.00
2023-04-15T06:25:35.746Z,346.00
2023-04-15T06:26:35.737Z,343.00
2023-04-15T06:27:35.730Z,345.00
2023-04-15T06:28:35.735Z,347.00
2023-04-15T06:29:35.738Z,347.00
2023-04-15T06:30:35.722Z,348.00
2023-04-15T06:31:35.725Z,344.00
2023-04-15T06:32:35.738Z,342.00
2023-04-15T06:33:35.703Z,342.00
2023-04-15T06:34:35.721Z,341.00
2023-04-15T06:35:35.749Z,341.00
2023-04-15T06:36:35.758Z,341.00
2023-04-15T06:37:35.771Z,341.00
2023-04-15T06:38:35.813Z,343.00
2023-04-15T06:39:35.841Z,343.00
2023-04-15T06:40:35.848Z,344.00
2023-04-15T06:41:35.885Z,343.00
2023-04-15T06:42:35.914Z,346.00
2023-04-15T06:43:35.930Z,348.00
2023-04-15T06:44:35.929Z,347.00
2023-04-15T06:45:35.990Z,349.00
2023-04-15T06:46:35.988Z,350.00
2023-04-15T06:47:36.012Z,350.00
2023-04-15T06:48:36.022Z,347.00
2023-04-15T06:49:36.058Z,348.00
2023-04-15T06:50:36.069Z,347.00
2023-04-15T06:51:36.087Z,346.00
2023-04-15T06:52:36.138Z,343.00
2023-04-15T06:53:36.142Z,343.00
2023-04-15T06:54:36.169Z,342.00
2023-04-15T06:55:36.178Z,343.00
2023-04-15T06:56:36.215Z,345.00
2023-04-15T06:57:36.220Z,345.00
2023-04-15T06:58:36.270Z,343.00
2023-04-15T06:59:36.272Z,345.00
2023-04-15T07:00:36.314Z,345.00
2023-04-15T07:01:36.665Z,344.00
2023-04-15T07:02:36.514Z,343.00
2023-04-15T07:03:36.375Z,343.00
2023-04-15T07:04:36.461Z,342.00
2023-04-15T07:05:36.420Z,341.00
2023-04-15T07:06:36.442Z,342.00
2023-04-15T07:07:36.502Z,342.00
2023-04-15T07:08:36.494Z,343.00
2023-04-15T07:09:36.532Z,341.00
2023-04-15T07:10:36.563Z,342.00
2023-04-15T07:11:36.570Z,346.00
2023-04-15T07:12:36.593Z,348.00
2023-04-15T07:13:36.602Z,347.00
2023-04-15T07:14:36.631Z,346.00
2023-04-15T07:15:36.668Z,345.00
2023-04-15T07:16:36.704Z,343.00
2023-04-15T07:17:36.728Z,342.00
2023-04-15T07:18:36.715Z,343.00
2023-04-15T07:19:36.754Z,345.00
2023-04-15T07:20:36.776Z,347.00
2023-04-15T07:21:36.796Z,346.00
2023-04-15T07:22:36.802Z,346.00
2023-04-15T07:23:36.833Z,348.00
2023-04-15T07:24:36.849Z,349.00
2023-04-15T07:25:36.863Z,347.00
2023-04-15T07:26:36.903Z,346.00
2023-04-15T07:27:36.926Z,345.00
2023-04-15T07:28:36.927Z,343.00
2023-04-15T07:29:36.938Z,344.00
2023-04-15T07:30:37.008Z,346.00
2023-04-15T07:31:37.138Z,346.00
2023-04-15T07:32:37.046Z,345.00
2023-04-15T07:33:37.013Z,346.00
2023-04-15T07:34:37.064Z,347.00
2023-04-15T07:35:37.089Z,349.00
2023-04-15T07:36:37.107Z,350.00
2023-04-15T07:37:37.124Z,348.00
2023-04-15T07:38:37.120Z,348.00
2023-04-15T07:39:37.143Z,347.00
2023-04-15T07:40:37.182Z,345.00
2023-04-15T07:41:37.181Z,342.00
2023-04-15T07:42:38.565Z,343.00
2023-04-15T07:43:37.183Z,343.00
2023-04-15T07:44:37.196Z,343.00
2023-04-15T07:45:37.182Z,341.00
2023-04-15T07:46:37.251Z,340.00
2023-04-15T07:47:37.219Z,340.00
2023-04-15T07:48:37.684Z,339.00
2023-04-15T07:49:37.131Z,339.00
2023-04-15T07:50:37.142Z,336.00
2023-04-15T07:51:37.133Z,338.00
2023-04-15T07:52:37.135Z,337.00
2023-04-15T07:53:37.107Z,336.00
2023-04-15T07:54:37.111Z,339.00
2023-04-15T07:55:37.105Z,337.00
2023-04-15T07:56:37.091Z,336.00
2023-04-15T07:57:37.106Z,336.00
2023-04-15T07:58:37.079Z,338.00
2023-04-15T07:59:37.086Z,338.00
2023-04-15T08:00:37.065Z,339.00
2023-04-15T08:01:37.067Z,341.00
2023-04-15T08:02:38.300Z,342.00
2023-04-15T08:03:37.137Z,345.00
2023-04-15T08:04:37.262Z,348.00
2023-04-15T08:05:37.050Z,344.00
2023-04-15T08:06:37.028Z,343.00
2023-04-15T08:07:37.029Z,344.00
2023-04-15T08:08:37.008Z,344.00
2023-04-15T08:09:36.999Z,348.00
2023-04-15T08:10:36.999Z,348.00
2023-04-15T08:11:36.987Z,347.00
2023-04-15T08:12:37.004Z,347.00
2023-04-15T08:13:36.988Z,347.00
2023-04-15T08:14:36.962Z,344.00
2023-04-15T08:15:36.962Z,343.00
2023-04-15T08:16:37.060Z,342.00
2023-04-15T08:17:36.982Z,341.00
2023-04-15T08:18:36.953Z,341.00
2023-04-15T08:19:36.933Z,343.00
2023-04-15T08:20:36.939Z,344.00
2023-04-15T08:21:36.920Z,344.00
2023-04-15T08:22:36.923Z,344.00
2023-04-15T08:23:36.908Z,343.00
2023-04-15T08:24:36.891Z,343.00
2023-04-15T08:25:36.886Z,341.00
2023-04-15T08:26:36.892Z,341.00
2023-04-15T08:27:36.888Z,341.00
2023-04-15T08:28:36.935Z,342.00
2023-04-15T08:29:36.971Z,338.00
2023-04-15T08:30:36.985Z,337.00
2023-04-15T08:31:37.055Z,338.00
2023-04-15T08:32:37.002Z,337.00
2023-04-15T08:33:36.983Z,338.00
2023-04-15T08:34:36.967Z,337.00
2023-04-15T08:35:36.968Z,338.00
2023-04-15T08:36:36.962Z,337.00
2023-04-15T08:37:36.961Z,336.00
2023-04-15T08:38:36.979Z,336.00
2023-04-15T08:39:36.971Z,337.00
2023-04-15T08:40:36.994Z,340.00
2023-04-15T08:41:37.022Z,343.00
2023-04-15T08:42:37.025Z,342.00
2023-04-15T08:43:37.065Z,341.00
2023-04-15T08:44:37.131Z,341.00
2023-04-15T08:45:37.158Z,339.00
2023-04-15T08:46:37.272Z,337.00
2023-04-15T08:47:37.320Z,335.00
2023-04-15T08:48:37.320Z,333.00
2023-04-15T08:49:37.374Z,335.00
2023-04-15T08:50:37.437Z,334.00
2023-04-15T08:51:37.491Z,331.00
2023-04-15T08:52:37.562Z,328.00
2023-04-15T08:53:37.615Z,327.00
2023-04-15T08:54:37.661Z,328.00
2023-04-15T08:55:37.715Z,328.00
2023-04-15T08:56:37.872Z,331.00
2023-04-15T08:57:37.842Z,331.00
2023-04-15T08:58:37.887Z,331.00
2023-04-15T08:59:37.936Z,331.00
2023-04-15T09:00:37.997Z,330.00
2023-04-15T09:01:38.315Z,329.00
2023-04-15T09:02:38.202Z,329.00
2023-04-15T09:03:38.210Z,331.00
2023-04-15T09:04:38.189Z,332.00
2023-04-15T09:05:38.231Z,332.00
2023-04-15T09:06:38.285Z,330.00
2023-04-15T09:07:38.345Z,329.00
2023-04-15T09:08:38.385Z,329.00
2023-04-15T09:09:38.428Z,330.00
2023-04-15T09:10:38.509Z,329.00
2023-04-15T09:11:38.561Z,329.00
2023-04-15T09:12:38.577Z,326.00
2023-04-15T09:13:38.628Z,326.00
2023-04-15T09:14:38.678Z,324.00
2023-04-15T09:15:38.710Z,324.00
2023-04-15T09:16:38.810Z,323.00
2023-04-15T09:17:38.848Z,325.00
2023-04-15T09:18:38.864Z,326.00
2023-04-15T09:19:38.886Z,325.00
2023-04-15T09:20:38.917Z,326.00
2023-04-15T09:21:38.962Z,324.00
2023-04-15T09:22:38.995Z,325.00
2023-04-15T09:23:39.034Z,325.00
2023-04-15T09:24:39.080Z,326.00
2023-04-15T09:25:39.101Z,326.00
2023-04-15T09:26:39.137Z,325.00
2023-04-15T09:27:39.153Z,325.00
2023-04-15T09:28:39.182Z,326.00
2023-04-15T09:29:39.215Z,328.00
2023-04-15T09:30:39.298Z,326.00
2023-04-15T09:31:39.255Z,326.00
2023-04-15T09:32:39.301Z,324.00
2023-04-15T09:33:39.308Z,320.00
2023-04-15T09:34:39.347Z,319.00
2023-04-15T09:35:39.357Z,319.00
2023-04-15T09:36:39.373Z,320.00
2023-04-15T09:37:39.381Z,325.00
2023-04-15T09:38:39.418Z,326.00
2023-04-15T09:39:39.427Z,328.00
2023-04-15T09:40:39.416Z,327.00
2023-04-15T09:41:39.437Z,328.00
2023-04-15T09:42:39.506Z,328.00
2023-04-15T09:43:39.483Z,327.00
2023-04-15T09:44:39.488Z,327.00
2023-04-15T09:45:39.515Z,329.00
2023-04-15T09:46:39.511Z,330.00
2023-04-15T09:47:39.592Z,330.00
2023-04-15T09:48:39.521Z,329.00
2023-04-15T09:49:39.597Z,329.00
2023-04-15T09:50:39.555Z,330.00
2023-04-15T09:51:39.543Z,331.00
2023-04-15T09:52:39.556Z,332.00
2023-04-15T09:53:39.547Z,333.00
2023-04-15T09:54:39.572Z,333.00
2023-04-15T09:55:39.569Z,332.00
2023-04-15T09:56:39.560Z,332.00
2023-04-15T09:57:39.551Z,331.00
2023-04-15T09:58:39.556Z,330.00
2023-04-15T09:59:39.563Z,333.00
2023-04-15T10:00:39.568Z,332.00
2023-04-15T10:01:39.570Z,332.00
2023-04-15T10:02:39.665Z,330.00
2023-04-15T10:03:39.707Z,328.00
2023-04-15T10:04:39.571Z,324.00
2023-04-15T10:05:39.575Z,326.00
2023-04-15T10:06:39.589Z,323.00
2023-04-15T10:07:39.568Z,321.00
2023-04-15T10:08:39.588Z,320.00
2023-04-15T10:09:39.680Z,320.00
2023-04-15T10:10:39.618Z,319.00
2023-04-15T10:11:39.597Z,318.00
2023-04-15T10:12:39.595Z,319.00
2023-04-15T10:13:39.593Z,320.00
2023-04-15T10:14:39.601Z,320.00
2023-04-15T10:15:39.612Z,320.00
2023-04-15T10:16:39.613Z,322.00
2023-04-15T10:17:39.611Z,323.00
2023-04-15T10:18:39.619Z,322.00
2023-04-15T10:19:39.626Z,324.00
2023-04-15T10:20:39.616Z,324.00
2023-04-15T10:21:39.607Z,327.00
2023-04-15T10:22:39.623Z,328.00
2023-04-15T10:23:39.608Z,328.00
2023-04-15T10:24:39.602Z,327.00
2023-04-15T10:25:39.609Z,326.00
2023-04-15T10:26:39.631Z,326.00
2023-04-15T10:27:39.598Z,326.00
2023-04-15T10:28:39.593Z,327.00
2023-04-15T10:29:39.612Z,326.00
2023-04-15T10:30:39.587Z,328.00
2023-04-15T10:31:39.626Z,327.00
2023-04-15T10:32:39.620Z,324.00
2023-04-15T10:33:39.617Z,323.00
2023-04-15T10:34:39.615Z,323.00
2023-04-15T10:35:39.606Z,322.00
2023-04-15T10:36:39.621Z,324.00
2023-04-15T10:37:39.601Z,325.00
2023-04-15T10:38:39.601Z,325.00
2023-04-15T10:39:39.624Z,323.00
2023-04-15T10:40:39.631Z,320.00
2023-04-15T10:41:39.612Z,320.00
2023-04-15T10:42:39.613Z,322.00
2023-04-15T10:43:39.633Z,325.00
2023-04-15T10:44:39.627Z,326.00
2023-04-15T10:45:40.354Z,325.00
2023-04-15T10:46:39.696Z,323.00
2023-04-15T10:47:39.683Z,321.00
2023-04-15T10:48:39.639Z,320.00
2023-04-15T10:49:39.636Z,320.00
2023-04-15T10:50:39.632Z,321.00
2023-04-15T10:51:39.663Z,321.00
2023-04-15T10:52:39.652Z,321.00
2023-04-15T10:53:39.637Z,323.00
2023-04-15T10:54:39.705Z,323.00
2023-04-15T10:55:39.666Z,324.00
2023-04-15T10:56:39.658Z,328.00
2023-04-15T10:57:39.672Z,327.00
2023-04-15T10:58:39.669Z,327.00
2023-04-15T10:59:39.678Z,327.00
2023-04-15T11:00:39.672Z,324.00
2023-04-15T11:01:39.700Z,326.00
2023-04-15T11:02:39.884Z,327.00
2023-04-15T11:03:39.925Z,323.00
2023-04-15T11:04:41.793Z,325.00
2023-04-15T11:05:39.703Z,325.00
2023-04-15T11:06:39.677Z,322.00
2023-04-15T11:07:39.669Z,321.00
2023-04-15T11:08:39.670Z,323.00
2023-04-15T11:09:39.686Z,324.00
2023-04-15T11:10:39.646Z,323.00
2023-04-15T11:11:39.647Z,326.00
2023-04-15T11:12:39.643Z,327.00
2023-04-15T11:13:39.620Z,327.00
2023-04-15T11:14:39.628Z,326.00
2023-04-15T11:15:39.608Z,327.00
2023-04-15T11:16:39.640Z,327.00
2023-04-15T11:17:39.626Z,327.00
2023-04-15T11:18:39.600Z,329.00
2023-04-15T11:19:39.596Z,331.00
2023-04-15T11:20:39.611Z,330.00
2023-04-15T11:21:39.559Z,329.00
2023-04-15T11:22:39.568Z,328.00
2023-04-15T11:23:39.548Z,328.00
2023-04-15T11:24:39.550Z,328.00
2023-04-15T11:25:39.547Z,326.00
2023-04-15T11:26:39.542Z,325.00
2023-04-15T11:27:39.517Z,324.00
2023-04-15T11:28:39.536Z,322.00
2023-04-15T11:29:39.519Z,320.00
2023-04-15T11:30:39.520Z,324.00
2023-04-15T11:31:39.523Z,324.00
2023-04-15T11:32:39.497Z,326.00
2023-04-15T11:33:39.495Z,326.00
2023-04-15T11:34:39.470Z,325.00
2023-04-15T11:35:39.467Z,326.00
2023-04-15T11:36:39.458Z,329.00
2023-04-15T11:37:39.466Z,329.00
2023-04-15T11:38:39.436Z,332.00
2023-04-15T11:39:39.442Z,330.00
2023-04-15T11:40:39.450Z,331.00
2023-04-15T11:41:39.430Z,330.00
2023-04-15T11:42:49.169Z,330.00
2023-04-15T11:43:40.432Z,329.00
2023-04-15T11:44:39.401Z,329.00
2023-04-15T11:45:39.424Z,329.00
2023-04-15T11:46:39.410Z,326.00
2023-04-15T11:47:39.419Z,326.00
2023-04-15T11:48:39.370Z,327.00
2023-04-15T11:49:39.360Z,329.00
2023-04-15T11:50:39.398Z,328.00
2023-04-15T11:51:39.360Z,328.00
2023-04-15T11:52:39.357Z,325.00
2023-04-15T11:53:39.350Z,324.00
2023-04-15T11:54:39.332Z,325.00
2023-04-15T11:55:39.349Z,325.00
2023-04-15T11:56:39.330Z,329.00
2023-04-15T11:57:39.336Z,329.00
2023-04-15T11:58:39.402Z,327.00
2023-04-15T11:59:45.404Z,326.00
2023-04-15T12:00:40.290Z,327.00
2023-04-15T12:01:39.306Z,327.00
2023-04-15T12:02:39.367Z,329.00
2023-04-15T12:03:39.382Z,330.00
2023-04-15T12:04:39.378Z,330.00
2023-04-15T12:05:39.274Z,329.00
2023-04-15T12:06:39.319Z,329.00
2023-04-15T12:07:39.233Z,329.00
2023-04-15T12:08:39.246Z,330.00
2023-04-15T12:09:39.235Z,330.00
2023-04-15T12:10:39.215Z,331.00
2023-04-15T12:11:39.205Z,331.00
2023-04-15T12:12:39.217Z,333.00
2023-04-15T12:13:39.198Z,335.00
2023-04-15T12:14:39.209Z,334.00
2023-04-15T12:15:39.294Z,332.00
2023-04-15T12:16:48.271Z,335.00
2023-04-15T12:17:52.146Z,335.00
2023-04-15T12:18:40.162Z,338.00
2023-04-15T12:19:39.148Z,335.00
2023-04-15T12:20:39.162Z,336.00
2023-04-15T12:21:39.170Z,334.00
2023-04-15T12:22:39.154Z,334.00
2023-04-15T12:23:39.131Z,334.00
2023-04-15T12:24:39.115Z,333.00
2023-04-15T12:25:39.133Z,332.00
2023-04-15T12:26:39.118Z,334.00
2023-04-15T12:27:39.112Z,332.00
2023-04-15T12:28:39.133Z,332.00